Philadelphia, Pennsylvania
Traffic Map
Current Weather Conditions
Philadelphia, Pennsylvania
Overcast
Overcast

Feels Like: 9°
Wind Chill: Ceiling: 18000
Heat Index: Visibility: 10mi
Dew Point: Wind: 0mph
Humidity: 58% Direction: ° ()
Pressure: 30.16in Gusts: 0mph
Raw Report DataKPHL 260254Z 00000KT 10SM BKN180 OVC250 09/01 A3016 RMK AO2 SLP212 T00890011 51017 $
Traffic Incident Summary
Active as of:
Severity:
Category:
InformationThere was an issue retrieving the traffic information for this location. Please try a different location or try again shortly.
Advertisements
Track Severe Weather on mobile